sensor_id;sensor_type;location;lat;lon;timestamp;P1;durP1;ratioP1;P2;durP2;ratioP2
62933;SDS011;49038;47.600;19.242;2024-02-15T00:00:05;12.07;;;5.87;;
62933;SDS011;49038;47.600;19.242;2024-02-15T00:03:10;16.87;;;7.60;;
62933;SDS011;49038;47.600;19.242;2024-02-15T00:06:15;19.25;;;9.18;;
62933;SDS011;49038;47.600;19.242;2024-02-15T00:09:17;22.17;;;9.80;;
62933;SDS011;49038;47.600;19.242;2024-02-15T00:12:20;16.90;;;9.10;;
62933;SDS011;49038;47.600;19.242;2024-02-15T00:15:22;17.27;;;8.75;;
62933;SDS011;49038;47.600;19.242;2024-02-15T00:18:25;18.50;;;9.77;;
62933;SDS011;49038;47.600;19.242;2024-02-15T00:21:27;16.00;;;9.48;;
62933;SDS011;49038;47.600;19.242;2024-02-15T00:24:29;15.27;;;7.78;;
62933;SDS011;49038;47.600;19.242;2024-02-15T00:27:32;12.23;;;7.12;;
62933;SDS011;49038;47.600;19.242;2024-02-15T00:30:36;14.43;;;8.57;;
62933;SDS011;49038;47.600;19.242;2024-02-15T00:33:38;16.73;;;8.43;;
62933;SDS011;49038;47.600;19.242;2024-02-15T00:36:42;17.55;;;8.27;;
62933;SDS011;49038;47.600;19.242;2024-02-15T00:39:45;16.08;;;8.65;;
62933;SDS011;49038;47.600;19.242;2024-02-15T00:42:47;20.90;;;7.47;;
62933;SDS011;49038;47.600;19.242;2024-02-15T00:45:49;13.82;;;7.35;;
62933;SDS011;49038;47.600;19.242;2024-02-15T00:48:52;12.07;;;7.25;;
62933;SDS011;49038;47.600;19.242;2024-02-15T00:51:54;9.40;;;6.75;;
62933;SDS011;49038;47.600;19.242;2024-02-15T00:54:56;11.32;;;5.93;;
62933;SDS011;49038;47.600;19.242;2024-02-15T00:57:59;10.73;;;7.32;;
62933;SDS011;49038;47.600;19.242;2024-02-15T01:01:01;18.90;;;8.98;;
62933;SDS011;49038;47.600;19.242;2024-02-15T01:04:04;13.20;;;7.68;;
62933;SDS011;49038;47.600;19.242;2024-02-15T01:07:07;16.45;;;9.10;;
62933;SDS011;49038;47.600;19.242;2024-02-15T01:10:10;17.67;;;7.82;;
62933;SDS011;49038;47.600;19.242;2024-02-15T01:13:12;9.57;;;6.15;;
62933;SDS011;49038;47.600;19.242;2024-02-15T01:16:14;11.40;;;6.25;;
62933;SDS011;49038;47.600;19.242;2024-02-15T01:19:17;10.55;;;6.43;;
62933;SDS011;49038;47.600;19.242;2024-02-15T01:22:19;9.70;;;5.50;;
62933;SDS011;49038;47.600;19.242;2024-02-15T01:25:25;8.23;;;4.85;;
62933;SDS011;49038;47.600;19.242;2024-02-15T01:28:29;10.00;;;6.37;;
62933;SDS011;49038;47.600;19.242;2024-02-15T01:31:32;10.75;;;5.90;;
62933;SDS011;49038;47.600;19.242;2024-02-15T01:34:34;6.53;;;5.32;;
62933;SDS011;49038;47.600;19.242;2024-02-15T01:37:36;8.50;;;6.05;;
62933;SDS011;49038;47.600;19.242;2024-02-15T01:40:38;16.70;;;6.37;;
62933;SDS011;49038;47.600;19.242;2024-02-15T01:43:44;12.75;;;5.80;;
62933;SDS011;49038;47.600;19.242;2024-02-15T01:46:49;11.10;;;6.57;;
62933;SDS011;49038;47.600;19.242;2024-02-15T01:49:55;8.80;;;6.03;;
62933;SDS011;49038;47.600;19.242;2024-02-15T01:52:58;9.52;;;6.55;;
62933;SDS011;49038;47.600;19.242;2024-02-15T01:56:01;14.30;;;6.90;;
62933;SDS011;49038;47.600;19.242;2024-02-15T01:59:04;13.10;;;7.32;;
62933;SDS011;49038;47.600;19.242;2024-02-15T02:02:08;14.05;;;6.87;;
62933;SDS011;49038;47.600;19.242;2024-02-15T02:05:11;14.87;;;8.48;;
62933;SDS011;49038;47.600;19.242;2024-02-15T02:08:13;12.32;;;7.45;;
62933;SDS011;49038;47.600;19.242;2024-02-15T02:11:15;11.23;;;7.00;;
62933;SDS011;49038;47.600;19.242;2024-02-15T02:14:17;16.92;;;8.73;;
62933;SDS011;49038;47.600;19.242;2024-02-15T02:17:22;11.65;;;6.70;;
62933;SDS011;49038;47.600;19.242;2024-02-15T02:20:25;11.98;;;7.75;;
62933;SDS011;49038;47.600;19.242;2024-02-15T02:23:28;12.20;;;8.10;;
62933;SDS011;49038;47.600;19.242;2024-02-15T02:26:33;13.30;;;8.85;;
62933;SDS011;49038;47.600;19.242;2024-02-15T02:29:36;12.07;;;8.05;;
62933;SDS011;49038;47.600;19.242;2024-02-15T02:32:46;9.45;;;7.18;;
62933;SDS011;49038;47.600;19.242;2024-02-15T02:35:49;10.45;;;6.90;;
62933;SDS011;49038;47.600;19.242;2024-02-15T02:38:52;8.68;;;6.32;;
62933;SDS011;49038;47.600;19.242;2024-02-15T02:41:55;10.27;;;6.00;;
62933;SDS011;49038;47.600;19.242;2024-02-15T02:44:57;12.65;;;7.28;;
62933;SDS011;49038;47.600;19.242;2024-02-15T02:47:59;11.23;;;6.43;;
62933;SDS011;49038;47.600;19.242;2024-02-15T02:51:01;13.90;;;7.07;;
62933;SDS011;49038;47.600;19.242;2024-02-15T02:54:04;11.43;;;6.90;;
62933;SDS011;49038;47.600;19.242;2024-02-15T02:57:08;13.25;;;7.05;;
62933;SDS011;49038;47.600;19.242;2024-02-15T03:00:11;12.35;;;6.80;;
62933;SDS011;49038;47.600;19.242;2024-02-15T03:03:17;12.65;;;6.55;;
62933;SDS011;49038;47.600;19.242;2024-02-15T03:06:21;8.70;;;6.28;;
62933;SDS011;49038;47.600;19.242;2024-02-15T03:09:23;13.25;;;7.20;;
62933;SDS011;49038;47.600;19.242;2024-02-15T03:12:27;14.30;;;7.28;;
62933;SDS011;49038;47.600;19.242;2024-02-15T03:15:31;9.80;;;6.47;;
62933;SDS011;49038;47.600;19.242;2024-02-15T03:18:34;12.40;;;6.57;;
62933;SDS011;49038;47.600;19.242;2024-02-15T03:21:37;12.30;;;7.65;;
62933;SDS011;49038;47.600;19.242;2024-02-15T03:24:39;9.15;;;5.93;;
62933;SDS011;49038;47.600;19.242;2024-02-15T03:27:42;12.40;;;6.75;;
62933;SDS011;49038;47.600;19.242;2024-02-15T03:30:44;12.30;;;5.82;;
62933;SDS011;49038;47.600;19.242;2024-02-15T03:33:47;9.73;;;5.90;;
62933;SDS011;49038;47.600;19.242;2024-02-15T03:36:51;11.52;;;6.95;;
62933;SDS011;49038;47.600;19.242;2024-02-15T03:39:55;13.62;;;7.25;;
62933;SDS011;49038;47.600;19.242;2024-02-15T03:42:58;11.02;;;6.07;;
62933;SDS011;49038;47.600;19.242;2024-02-15T03:46:00;7.93;;;5.78;;
62933;SDS011;49038;47.600;19.242;2024-02-15T03:49:02;11.32;;;6.35;;
62933;SDS011;49038;47.600;19.242;2024-02-15T03:52:04;12.23;;;6.57;;
62933;SDS011;49038;47.600;19.242;2024-02-15T03:55:07;10.73;;;6.30;;
62933;SDS011;49038;47.600;19.242;2024-02-15T03:58:09;10.02;;;6.75;;
62933;SDS011;49038;47.600;19.242;2024-02-15T04:01:12;10.60;;;5.55;;
62933;SDS011;49038;47.600;19.242;2024-02-15T04:04:16;10.55;;;6.15;;
62933;SDS011;49038;47.600;19.242;2024-02-15T04:07:19;11.82;;;5.20;;
62933;SDS011;49038;47.600;19.242;2024-02-15T04:10:21;7.32;;;5.05;;
62933;SDS011;49038;47.600;19.242;2024-02-15T04:13:23;6.82;;;4.95;;
62933;SDS011;49038;47.600;19.242;2024-02-15T04:16:26;7.78;;;5.18;;
62933;SDS011;49038;47.600;19.242;2024-02-15T04:19:28;10.23;;;5.03;;
62933;SDS011;49038;47.600;19.242;2024-02-15T04:22:30;9.15;;;4.78;;
62933;SDS011;49038;47.600;19.242;2024-02-15T04:25:38;7.12;;;5.65;;
62933;SDS011;49038;47.600;19.242;2024-02-15T04:28:42;8.07;;;4.93;;
62933;SDS011;49038;47.600;19.242;2024-02-15T04:31:44;9.60;;;5.80;;
62933;SDS011;49038;47.600;19.242;2024-02-15T04:34:46;18.75;;;5.95;;
62933;SDS011;49038;47.600;19.242;2024-02-15T04:37:49;8.32;;;5.30;;
62933;SDS011;49038;47.600;19.242;2024-02-15T04:40:53;10.23;;;4.70;;
62933;SDS011;49038;47.600;19.242;2024-02-15T04:43:56;9.10;;;5.22;;
62933;SDS011;49038;47.600;19.242;2024-02-15T04:46:58;14.27;;;6.40;;
62933;SDS011;49038;47.600;19.242;2024-02-15T04:50:01;9.20;;;6.37;;
62933;SDS011;49038;47.600;19.242;2024-02-15T04:53:04;11.35;;;6.75;;
62933;SDS011;49038;47.600;19.242;2024-02-15T04:56:08;12.10;;;6.53;;
62933;SDS011;49038;47.600;19.242;2024-02-15T04:59:15;9.00;;;5.18;;
62933;SDS011;49038;47.600;19.242;2024-02-15T05:02:18;10.07;;;4.80;;
62933;SDS011;49038;47.600;19.242;2024-02-15T05:05:21;9.38;;;5.12;;
62933;SDS011;49038;47.600;19.242;2024-02-15T05:08:25;6.87;;;5.12;;
62933;SDS011;49038;47.600;19.242;2024-02-15T05:11:28;12.10;;;4.47;;
62933;SDS011;49038;47.600;19.242;2024-02-15T05:14:31;6.82;;;4.60;;
62933;SDS011;49038;47.600;19.242;2024-02-15T05:17:33;9.43;;;5.93;;
62933;SDS011;49038;47.600;19.242;2024-02-15T05:20:35;11.80;;;7.12;;
62933;SDS011;49038;47.600;19.242;2024-02-15T05:23:38;14.68;;;8.52;;
62933;SDS011;49038;47.600;19.242;2024-02-15T05:26:45;8.45;;;5.40;;
62933;SDS011;49038;47.600;19.242;2024-02-15T05:29:54;12.63;;;6.10;;
62933;SDS011;49038;47.600;19.242;2024-02-15T05:32:56;13.15;;;6.18;;
62933;SDS011;49038;47.600;19.242;2024-02-15T05:35:59;8.05;;;5.78;;
62933;SDS011;49038;47.600;19.242;2024-02-15T05:39:01;11.85;;;6.30;;
62933;SDS011;49038;47.600;19.242;2024-02-15T05:42:05;9.57;;;5.60;;
62933;SDS011;49038;47.600;19.242;2024-02-15T05:48:27;13.82;;;6.15;;
62933;SDS011;49038;47.600;19.242;2024-02-15T05:51:30;10.65;;;5.55;;
62933;SDS011;49038;47.600;19.242;2024-02-15T05:54:33;13.73;;;6.80;;
62933;SDS011;49038;47.600;19.242;2024-02-15T05:57:35;9.68;;;5.87;;
62933;SDS011;49038;47.600;19.242;2024-02-15T06:00:38;12.57;;;7.15;;
62933;SDS011;49038;47.600;19.242;2024-02-15T06:03:41;15.02;;;7.87;;
62933;SDS011;49038;47.600;19.242;2024-02-15T06:06:46;12.37;;;6.97;;
62933;SDS011;49038;47.600;19.242;2024-02-15T06:09:52;13.07;;;6.70;;
62933;SDS011;49038;47.600;19.242;2024-02-15T06:12:55;10.30;;;7.82;;
62933;SDS011;49038;47.600;19.242;2024-02-15T06:15:58;15.07;;;7.28;;
62933;SDS011;49038;47.600;19.242;2024-02-15T06:19:00;11.45;;;6.62;;
62933;SDS011;49038;47.600;19.242;2024-02-15T06:22:03;10.10;;;5.80;;
62933;SDS011;49038;47.600;19.242;2024-02-15T06:25:06;8.63;;;4.95;;
62933;SDS011;49038;47.600;19.242;2024-02-15T06:28:09;14.60;;;6.90;;
62933;SDS011;49038;47.600;19.242;2024-02-15T06:31:30;13.35;;;8.07;;
62933;SDS011;49038;47.600;19.242;2024-02-15T06:38:12;13.95;;;7.35;;
62933;SDS011;49038;47.600;19.242;2024-02-15T06:41:33;9.70;;;6.57;;
62933;SDS011;49038;47.600;19.242;2024-02-15T06:44:35;14.32;;;7.62;;
62933;SDS011;49038;47.600;19.242;2024-02-15T06:47:37;14.00;;;8.27;;
62933;SDS011;49038;47.600;19.242;2024-02-15T06:50:47;12.57;;;8.18;;
62933;SDS011;49038;47.600;19.242;2024-02-15T06:53:50;12.82;;;7.60;;
62933;SDS011;49038;47.600;19.242;2024-02-15T06:56:58;11.12;;;6.70;;
62933;SDS011;49038;47.600;19.242;2024-02-15T07:00:02;17.27;;;7.62;;
62933;SDS011;49038;47.600;19.242;2024-02-15T07:03:11;15.82;;;8.95;;
62933;SDS011;49038;47.600;19.242;2024-02-15T07:06:13;19.70;;;8.18;;
62933;SDS011;49038;47.600;19.242;2024-02-15T07:09:16;19.45;;;8.95;;
62933;SDS011;49038;47.600;19.242;2024-02-15T07:12:21;22.80;;;10.98;;
62933;SDS011;49038;47.600;19.242;2024-02-15T07:15:23;19.77;;;8.80;;
62933;SDS011;49038;47.600;19.242;2024-02-15T07:18:26;11.25;;;6.50;;
62933;SDS011;49038;47.600;19.242;2024-02-15T07:21:31;10.57;;;6.22;;
62933;SDS011;49038;47.600;19.242;2024-02-15T07:24:33;7.82;;;5.82;;
62933;SDS011;49038;47.600;19.242;2024-02-15T07:27:35;8.95;;;5.78;;
62933;SDS011;49038;47.600;19.242;2024-02-15T07:30:38;6.45;;;4.68;;
62933;SDS011;49038;47.600;19.242;2024-02-15T07:33:40;11.18;;;6.47;;
62933;SDS011;49038;47.600;19.242;2024-02-15T07:36:45;14.30;;;7.50;;
62933;SDS011;49038;47.600;19.242;2024-02-15T07:39:48;16.40;;;6.87;;
62933;SDS011;49038;47.600;19.242;2024-02-15T07:42:50;8.15;;;5.72;;
62933;SDS011;49038;47.600;19.242;2024-02-15T07:45:54;15.25;;;7.28;;
62933;SDS011;49038;47.600;19.242;2024-02-15T07:48:56;12.77;;;8.38;;
62933;SDS011;49038;47.600;19.242;2024-02-15T07:51:59;8.98;;;6.90;;
62933;SDS011;49038;47.600;19.242;2024-02-15T07:55:02;11.25;;;6.87;;
62933;SDS011;49038;47.600;19.242;2024-02-15T07:58:10;9.80;;;6.22;;
62933;SDS011;49038;47.600;19.242;2024-02-15T08:01:14;8.35;;;5.60;;
62933;SDS011;49038;47.600;19.242;2024-02-15T08:04:18;13.27;;;6.45;;
62933;SDS011;49038;47.600;19.242;2024-02-15T08:07:20;12.57;;;7.57;;
62933;SDS011;49038;47.600;19.242;2024-02-15T08:10:23;10.95;;;6.53;;
62933;SDS011;49038;47.600;19.242;2024-02-15T08:13:25;7.40;;;4.47;;
62933;SDS011;49038;47.600;19.242;2024-02-15T08:16:31;11.38;;;6.78;;
62933;SDS011;49038;47.600;19.242;2024-02-15T08:19:35;8.43;;;6.55;;
62933;SDS011;49038;47.600;19.242;2024-02-15T08:22:39;12.10;;;7.75;;
62933;SDS011;49038;47.600;19.242;2024-02-15T08:25:42;11.70;;;6.87;;
62933;SDS011;49038;47.600;19.242;2024-02-15T08:28:44;9.00;;;6.43;;
62933;SDS011;49038;47.600;19.242;2024-02-15T08:31:47;8.95;;;6.78;;
62933;SDS011;49038;47.600;19.242;2024-02-15T08:34:50;14.90;;;7.12;;
62933;SDS011;49038;47.600;19.242;2024-02-15T08:37:53;10.65;;;6.55;;
62933;SDS011;49038;47.600;19.242;2024-02-15T08:40:56;15.88;;;8.45;;
62933;SDS011;49038;47.600;19.242;2024-02-15T08:43:58;14.98;;;8.48;;
62933;SDS011;49038;47.600;19.242;2024-02-15T08:47:02;11.73;;;7.15;;
62933;SDS011;49038;47.600;19.242;2024-02-15T08:50:07;13.13;;;8.30;;
62933;SDS011;49038;47.600;19.242;2024-02-15T08:53:13;14.45;;;8.65;;
62933;SDS011;49038;47.600;19.242;2024-02-15T08:56:17;13.32;;;7.40;;
62933;SDS011;49038;47.600;19.242;2024-02-15T08:59:19;9.77;;;7.22;;
62933;SDS011;49038;47.600;19.242;2024-02-15T09:02:22;8.80;;;6.60;;
62933;SDS011;49038;47.600;19.242;2024-02-15T09:05:24;13.62;;;8.20;;
62933;SDS011;49038;47.600;19.242;2024-02-15T09:08:26;14.93;;;7.93;;
62933;SDS011;49038;47.600;19.242;2024-02-15T09:11:29;12.15;;;7.70;;
62933;SDS011;49038;47.600;19.242;2024-02-15T09:14:35;16.73;;;8.63;;
62933;SDS011;49038;47.600;19.242;2024-02-15T09:17:41;13.50;;;8.70;;
62933;SDS011;49038;47.600;19.242;2024-02-15T09:20:46;12.68;;;7.30;;
62933;SDS011;49038;47.600;19.242;2024-02-15T09:23:51;12.35;;;7.10;;
62933;SDS011;49038;47.600;19.242;2024-02-15T09:26:53;13.27;;;7.35;;
62933;SDS011;49038;47.600;19.242;2024-02-15T09:29:55;15.95;;;8.20;;
62933;SDS011;49038;47.600;19.242;2024-02-15T09:32:57;20.00;;;11.88;;
62933;SDS011;49038;47.600;19.242;2024-02-15T09:36:00;11.63;;;7.25;;
62933;SDS011;49038;47.600;19.242;2024-02-15T09:39:02;16.20;;;10.07;;
62933;SDS011;49038;47.600;19.242;2024-02-15T09:42:04;18.00;;;7.82;;
62933;SDS011;49038;47.600;19.242;2024-02-15T09:45:07;10.40;;;6.72;;
62933;SDS011;49038;47.600;19.242;2024-02-15T09:48:13;12.37;;;7.47;;
62933;SDS011;49038;47.600;19.242;2024-02-15T09:51:18;19.17;;;8.35;;
62933;SDS011;49038;47.600;19.242;2024-02-15T09:54:20;18.75;;;8.32;;
62933;SDS011;49038;47.600;19.242;2024-02-15T09:57:25;15.68;;;7.82;;
62933;SDS011;49038;47.600;19.242;2024-02-15T10:00:29;14.93;;;7.32;;
62933;SDS011;49038;47.600;19.242;2024-02-15T10:03:31;12.60;;;7.25;;
62933;SDS011;49038;47.600;19.242;2024-02-15T10:06:34;11.82;;;6.68;;
62933;SDS011;49038;47.600;19.242;2024-02-15T10:09:36;15.05;;;7.65;;
62933;SDS011;49038;47.600;19.242;2024-02-15T10:12:38;19.58;;;7.87;;
62933;SDS011;49038;47.600;19.242;2024-02-15T10:15:41;11.23;;;7.45;;
62933;SDS011;49038;47.600;19.242;2024-02-15T10:18:43;13.40;;;8.30;;
62933;SDS011;49038;47.600;19.242;2024-02-15T10:21:46;14.95;;;8.75;;
62933;SDS011;49038;47.600;19.242;2024-02-15T10:24:48;16.17;;;8.98;;
62933;SDS011;49038;47.600;19.242;2024-02-15T10:27:51;15.10;;;8.07;;
62933;SDS011;49038;47.600;19.242;2024-02-15T10:31:07;10.80;;;6.87;;
62933;SDS011;49038;47.600;19.242;2024-02-15T10:34:09;18.77;;;7.78;;
62933;SDS011;49038;47.600;19.242;2024-02-15T10:37:16;12.93;;;7.95;;
62933;SDS011;49038;47.600;19.242;2024-02-15T10:40:19;13.65;;;8.73;;
62933;SDS011;49038;47.600;19.242;2024-02-15T10:43:22;13.68;;;7.97;;
62933;SDS011;49038;47.600;19.242;2024-02-15T10:46:24;14.05;;;8.23;;
62933;SDS011;49038;47.600;19.242;2024-02-15T10:49:27;11.30;;;7.05;;
62933;SDS011;49038;47.600;19.242;2024-02-15T10:52:31;10.35;;;6.60;;
62933;SDS011;49038;47.600;19.242;2024-02-15T10:59:19;9.23;;;6.18;;
62933;SDS011;49038;47.600;19.242;2024-02-15T11:02:26;16.80;;;7.55;;
62933;SDS011;49038;47.600;19.242;2024-02-15T11:05:35;11.10;;;6.97;;
62933;SDS011;49038;47.600;19.242;2024-02-15T11:08:39;16.65;;;6.85;;
62933;SDS011;49038;47.600;19.242;2024-02-15T11:11:42;9.88;;;6.30;;
62933;SDS011;49038;47.600;19.242;2024-02-15T11:14:46;12.07;;;6.80;;
62933;SDS011;49038;47.600;19.242;2024-02-15T11:17:48;12.90;;;7.45;;
62933;SDS011;49038;47.600;19.242;2024-02-15T11:20:52;8.48;;;5.80;;
62933;SDS011;49038;47.600;19.242;2024-02-15T11:23:58;13.35;;;6.50;;
62933;SDS011;49038;47.600;19.242;2024-02-15T11:27:30;11.82;;;6.03;;
62933;SDS011;49038;47.600;19.242;2024-02-15T11:30:33;10.80;;;5.97;;
62933;SDS011;49038;47.600;19.242;2024-02-15T11:33:36;10.35;;;5.82;;
62933;SDS011;49038;47.600;19.242;2024-02-15T11:36:39;11.85;;;5.82;;
62933;SDS011;49038;47.600;19.242;2024-02-15T11:39:44;9.68;;;5.97;;
62933;SDS011;49038;47.600;19.242;2024-02-15T11:42:52;10.88;;;6.30;;
62933;SDS011;49038;47.600;19.242;2024-02-15T11:45:58;8.05;;;5.12;;
62933;SDS011;49038;47.600;19.242;2024-02-15T11:49:00;8.50;;;6.05;;
62933;SDS011;49038;47.600;19.242;2024-02-15T11:52:09;12.57;;;6.55;;
62933;SDS011;49038;47.600;19.242;2024-02-15T11:55:12;9.60;;;5.75;;
62933;SDS011;49038;47.600;19.242;2024-02-15T11:58:17;11.88;;;5.70;;
62933;SDS011;49038;47.600;19.242;2024-02-15T12:01:30;10.05;;;6.35;;
62933;SDS011;49038;47.600;19.242;2024-02-15T12:08:12;11.52;;;6.15;;
62933;SDS011;49038;47.600;19.242;2024-02-15T12:11:34;8.82;;;5.95;;
62933;SDS011;49038;47.600;19.242;2024-02-15T12:14:59;11.35;;;5.95;;
62933;SDS011;49038;47.600;19.242;2024-02-15T12:18:25;8.73;;;5.45;;
62933;SDS011;49038;47.600;19.242;2024-02-15T12:21:48;13.48;;;6.28;;
62933;SDS011;49038;47.600;19.242;2024-02-15T12:24:54;9.60;;;4.75;;
62933;SDS011;49038;47.600;19.242;2024-02-15T12:27:58;8.23;;;5.12;;
62933;SDS011;49038;47.600;19.242;2024-02-15T12:31:01;9.05;;;5.62;;
62933;SDS011;49038;47.600;19.242;2024-02-15T12:34:04;8.50;;;5.12;;
62933;SDS011;49038;47.600;19.242;2024-02-15T12:37:10;13.77;;;6.68;;
62933;SDS011;49038;47.600;19.242;2024-02-15T12:40:13;8.68;;;5.28;;
62933;SDS011;49038;47.600;19.242;2024-02-15T12:43:18;13.73;;;6.30;;
62933;SDS011;49038;47.600;19.242;2024-02-15T12:46:21;9.02;;;4.90;;
62933;SDS011;49038;47.600;19.242;2024-02-15T12:52:35;9.15;;;5.47;;
62933;SDS011;49038;47.600;19.242;2024-02-15T12:55:39;9.80;;;5.87;;
62933;SDS011;49038;47.600;19.242;2024-02-15T12:58:42;8.98;;;4.72;;
62933;SDS011;49038;47.600;19.242;2024-02-15T13:01:45;9.63;;;5.62;;
62933;SDS011;49038;47.600;19.242;2024-02-15T13:04:50;8.45;;;5.45;;
62933;SDS011;49038;47.600;19.242;2024-02-15T13:07:53;9.20;;;5.03;;
62933;SDS011;49038;47.600;19.242;2024-02-15T13:10:59;11.60;;;5.62;;
62933;SDS011;49038;47.600;19.242;2024-02-15T13:14:05;8.50;;;5.35;;
62933;SDS011;49038;47.600;19.242;2024-02-15T13:17:07;10.57;;;5.70;;
62933;SDS011;49038;47.600;19.242;2024-02-15T13:20:09;7.47;;;5.68;;
62933;SDS011;49038;47.600;19.242;2024-02-15T13:23:16;12.35;;;5.70;;
62933;SDS011;49038;47.600;19.242;2024-02-15T13:26:24;9.20;;;4.93;;
62933;SDS011;49038;47.600;19.242;2024-02-15T13:29:27;10.20;;;5.97;;
62933;SDS011;49038;47.600;19.242;2024-02-15T13:32:29;9.75;;;5.18;;
62933;SDS011;49038;47.600;19.242;2024-02-15T13:35:32;7.72;;;5.12;;
62933;SDS011;49038;47.600;19.242;2024-02-15T13:38:34;13.20;;;7.55;;
62933;SDS011;49038;47.600;19.242;2024-02-15T13:41:38;10.43;;;5.20;;
62933;SDS011;49038;47.600;19.242;2024-02-15T13:44:41;11.75;;;6.45;;
62933;SDS011;49038;47.600;19.242;2024-02-15T13:47:46;10.20;;;5.70;;
62933;SDS011;49038;47.600;19.242;2024-02-15T13:50:58;14.82;;;7.97;;
62933;SDS011;49038;47.600;19.242;2024-02-15T13:54:01;9.90;;;5.75;;
62933;SDS011;49038;47.600;19.242;2024-02-15T13:57:03;12.88;;;6.45;;
62933;SDS011;49038;47.600;19.242;2024-02-15T14:00:06;13.23;;;6.53;;
62933;SDS011;49038;47.600;19.242;2024-02-15T14:03:14;10.45;;;5.75;;
62933;SDS011;49038;47.600;19.242;2024-02-15T14:06:17;15.93;;;6.15;;
62933;SDS011;49038;47.600;19.242;2024-02-15T14:09:20;9.57;;;6.00;;
62933;SDS011;49038;47.600;19.242;2024-02-15T14:12:28;11.05;;;5.40;;
62933;SDS011;49038;47.600;19.242;2024-02-15T14:15:31;11.30;;;6.55;;
62933;SDS011;49038;47.600;19.242;2024-02-15T14:18:39;14.20;;;6.40;;
62933;SDS011;49038;47.600;19.242;2024-02-15T14:21:41;16.20;;;8.75;;
62933;SDS011;49038;47.600;19.242;2024-02-15T14:24:46;13.57;;;7.53;;
62933;SDS011;49038;47.600;19.242;2024-02-15T14:27:49;12.52;;;6.50;;
62933;SDS011;49038;47.600;19.242;2024-02-15T14:30:52;13.43;;;7.28;;
62933;SDS011;49038;47.600;19.242;2024-02-15T14:34:14;11.40;;;7.40;;
62933;SDS011;49038;47.600;19.242;2024-02-15T14:37:17;12.35;;;6.20;;
62933;SDS011;49038;47.600;19.242;2024-02-15T14:40:21;11.05;;;6.30;;
62933;SDS011;49038;47.600;19.242;2024-02-15T14:43:28;12.32;;;5.87;;
62933;SDS011;49038;47.600;19.242;2024-02-15T14:46:31;14.98;;;6.62;;
62933;SDS011;49038;47.600;19.242;2024-02-15T14:49:36;18.42;;;9.77;;
62933;SDS011;49038;47.600;19.242;2024-02-15T14:52:39;15.20;;;6.47;;
62933;SDS011;49038;47.600;19.242;2024-02-15T14:55:41;11.20;;;5.40;;
62933;SDS011;49038;47.600;19.242;2024-02-15T14:58:48;10.32;;;5.78;;
62933;SDS011;49038;47.600;19.242;2024-02-15T15:01:50;8.35;;;5.70;;
62933;SDS011;49038;47.600;19.242;2024-02-15T15:04:52;11.25;;;5.62;;
62933;SDS011;49038;47.600;19.242;2024-02-15T15:08:13;11.83;;;6.17;;
62933;SDS011;49038;47.600;19.242;2024-02-15T15:11:34;9.77;;;5.93;;
62933;SDS011;49038;47.600;19.242;2024-02-15T15:14:55;10.90;;;6.45;;
62933;SDS011;49038;47.600;19.242;2024-02-15T15:17:57;9.95;;;5.28;;
62933;SDS011;49038;47.600;19.242;2024-02-15T15:21:00;16.55;;;7.57;;
62933;SDS011;49038;47.600;19.242;2024-02-15T15:24:03;12.82;;;6.65;;
62933;SDS011;49038;47.600;19.242;2024-02-15T15:27:06;11.57;;;7.28;;
62933;SDS011;49038;47.600;19.242;2024-02-15T15:30:09;14.15;;;6.28;;
62933;SDS011;49038;47.600;19.242;2024-02-15T15:33:12;12.75;;;7.40;;
62933;SDS011;49038;47.600;19.242;2024-02-15T15:36:15;14.73;;;8.23;;
62933;SDS011;49038;47.600;19.242;2024-02-15T15:39:20;13.30;;;7.90;;
62933;SDS011;49038;47.600;19.242;2024-02-15T15:42:22;9.98;;;6.82;;
62933;SDS011;49038;47.600;19.242;2024-02-15T15:45:24;10.70;;;7.18;;
62933;SDS011;49038;47.600;19.242;2024-02-15T15:48:27;13.13;;;6.53;;
62933;SDS011;49038;47.600;19.242;2024-02-15T15:51:29;12.60;;;6.97;;
62933;SDS011;49038;47.600;19.242;2024-02-15T15:54:32;19.87;;;10.15;;
62933;SDS011;49038;47.600;19.242;2024-02-15T15:57:35;31.75;;;16.95;;
62933;SDS011;49038;47.600;19.242;2024-02-15T16:00:37;13.82;;;8.15;;
62933;SDS011;49038;47.600;19.242;2024-02-15T16:03:40;13.25;;;7.55;;
62933;SDS011;49038;47.600;19.242;2024-02-15T16:06:42;17.85;;;8.38;;
62933;SDS011;49038;47.600;19.242;2024-02-15T16:09:45;13.95;;;7.47;;
62933;SDS011;49038;47.600;19.242;2024-02-15T16:12:48;11.85;;;7.75;;
62933;SDS011;49038;47.600;19.242;2024-02-15T16:15:51;11.80;;;7.90;;
62933;SDS011;49038;47.600;19.242;2024-02-15T16:18:55;11.55;;;7.53;;
62933;SDS011;49038;47.600;19.242;2024-02-15T16:21:58;17.58;;;8.40;;
62933;SDS011;49038;47.600;19.242;2024-02-15T16:25:01;16.05;;;7.68;;
62933;SDS011;49038;47.600;19.242;2024-02-15T16:28:07;12.75;;;7.18;;
62933;SDS011;49038;47.600;19.242;2024-02-15T16:31:10;16.62;;;7.90;;
62933;SDS011;49038;47.600;19.242;2024-02-15T16:34:13;14.75;;;9.13;;
62933;SDS011;49038;47.600;19.242;2024-02-15T16:37:15;14.87;;;8.95;;
62933;SDS011;49038;47.600;19.242;2024-02-15T16:40:18;15.32;;;8.05;;
62933;SDS011;49038;47.600;19.242;2024-02-15T16:43:20;18.27;;;8.80;;
62933;SDS011;49038;47.600;19.242;2024-02-15T16:46:23;13.93;;;8.23;;
62933;SDS011;49038;47.600;19.242;2024-02-15T16:49:26;18.02;;;8.40;;
62933;SDS011;49038;47.600;19.242;2024-02-15T16:52:28;15.88;;;8.57;;
62933;SDS011;49038;47.600;19.242;2024-02-15T16:55:30;28.38;;;11.90;;
62933;SDS011;49038;47.600;19.242;2024-02-15T16:58:34;19.23;;;10.80;;
62933;SDS011;49038;47.600;19.242;2024-02-15T17:01:37;21.40;;;9.57;;
62933;SDS011;49038;47.600;19.242;2024-02-15T17:04:40;30.58;;;14.15;;
62933;SDS011;49038;47.600;19.242;2024-02-15T17:07:42;32.83;;;16.42;;
62933;SDS011;49038;47.600;19.242;2024-02-15T17:10:45;21.75;;;12.30;;
62933;SDS011;49038;47.600;19.242;2024-02-15T17:13:48;15.32;;;8.93;;
62933;SDS011;49038;47.600;19.242;2024-02-15T17:16:52;30.15;;;13.38;;
62933;SDS011;49038;47.600;19.242;2024-02-15T17:19:57;20.17;;;11.60;;
62933;SDS011;49038;47.600;19.242;2024-02-15T17:22:59;23.58;;;10.80;;
62933;SDS011;49038;47.600;19.242;2024-02-15T17:26:03;30.30;;;15.27;;
62933;SDS011;49038;47.600;19.242;2024-02-15T17:29:06;21.73;;;11.07;;
62933;SDS011;49038;47.600;19.242;2024-02-15T17:32:12;26.48;;;12.50;;
62933;SDS011;49038;47.600;19.242;2024-02-15T17:35:15;18.80;;;9.07;;
62933;SDS011;49038;47.600;19.242;2024-02-15T17:38:19;14.48;;;9.25;;
62933;SDS011;49038;47.600;19.242;2024-02-15T17:41:21;22.02;;;10.68;;
62933;SDS011;49038;47.600;19.242;2024-02-15T17:44:24;16.87;;;10.63;;
62933;SDS011;49038;47.600;19.242;2024-02-15T17:47:26;15.05;;;9.57;;
62933;SDS011;49038;47.600;19.242;2024-02-15T17:50:28;19.42;;;11.27;;
62933;SDS011;49038;47.600;19.242;2024-02-15T17:53:31;15.57;;;10.35;;
62933;SDS011;49038;47.600;19.242;2024-02-15T17:56:33;13.25;;;8.27;;
62933;SDS011;49038;47.600;19.242;2024-02-15T17:59:35;17.58;;;9.77;;
62933;SDS011;49038;47.600;19.242;2024-02-15T18:02:37;15.10;;;9.30;;
62933;SDS011;49038;47.600;19.242;2024-02-15T18:05:39;23.52;;;12.50;;
62933;SDS011;49038;47.600;19.242;2024-02-15T18:08:48;22.10;;;11.85;;
62933;SDS011;49038;47.600;19.242;2024-02-15T18:11:50;18.25;;;10.73;;
62933;SDS011;49038;47.600;19.242;2024-02-15T18:14:52;19.25;;;9.00;;